Weather at Topock Field [CLOSED]

Public forecast

Using degrees Fahrenheit for public forecast. Weather courtesy of forecast.io.

Closest aviation weather report (METAR) to Topock Field

Closest report is Needles Airport, 9.4 nm (17.4 km) WNW. Retrieved 2021/06/13 16:56 UTC (18 minutes ago):

KEED 131656Z AUTO 10003KT 10SM CLR 36/M11 A2981 RMK AO2 SLP058 T03561111

Closest aviation forecast (TAF) to Topock Field

Closest forecast is Needles Airport, 9.4 nm (17.4 km) WNW. Retrieved 2021/06/13 12:22 UTC (5 hours ago):

TAF KEED 131120Z 1312/1412 VRB05KT P6SM FEW250 FM131900 19013G22KT P6SM SKC FM140300 23009KT P6SM SKC FM140800 VRB05KT P6SM SKC